Time;durP1;ratioP1;P1;durP2;ratioP2;P2;SDS_P1;SDS_P2;PMS_P1;PMS_P2;Temp;Humidity;BMP_temperature;BMP_pressure;BME280_temperature;BME280_humidity;BME280_pressure;Samples;Min_cycle;Max_cycle;Signal;HPM_P1;HPM_P2
2022/01/17 00:00:52;;;;;;;15.80;13.73;;;;;;;;;;5129898;27;24440;-57
2022/01/17 00:03:18;;;;;;;14.83;13.23;;;;;;;;;;5125620;27;24453;-58
2022/01/17 00:05:43;;;;;;;15.35;13.60;;;;;;;;;;5128304;27;24978;-58
2022/01/17 00:08:09;;;;;;;14.03;12.50;;;;;;;;;;5129166;27;24482;-59
2022/01/17 00:10:34;;;;;;;14.00;12.50;;;;;;;;;;5129870;27;24416;-58
2022/01/17 00:12:59;;;;;;;16.33;13.40;;;;;;;;;;5129655;27;24421;-59
2022/01/17 00:15:43;;;;;;;14.23;12.67;;;;;;;;;;5128265;27;24397;-58
2022/01/17 00:20:39;;;;;;;15.80;12.95;;;;;;;;;;5129105;27;24470;-58
2022/01/17 00:23:05;;;;;;;14.77;13.18;;;;;;;;;;5129721;27;24450;-58
2022/01/17 00:25:30;;;;;;;15.10;13.50;;;;;;;;;;5129863;27;24500;-58
2022/01/17 00:27:55;;;;;;;14.57;12.53;;;;;;;;;;5128402;27;24543;-59
2022/01/17 00:30:20;;;;;;;14.43;12.38;;;;;;;;;;5127852;27;24980;-58
2022/01/17 00:32:46;;;;;;;14.90;13.30;;;;;;;;;;5128722;27;24445;-57
2022/01/17 00:35:11;;;;;;;14.60;12.43;;;;;;;;;;5129183;27;24412;-57
2022/01/17 00:37:36;;;;;;;15.33;13.70;;;;;;;;;;5124076;27;24461;-58
2022/01/17 00:40:02;;;;;;;14.98;12.95;;;;;;;;;;5128102;27;24833;-58
2022/01/17 00:42:27;;;;;;;14.37;12.60;;;;;;;;;;5128326;27;24946;-57
2022/01/17 00:44:52;;;;;;;14.32;12.80;;;;;;;;;;5128814;27;24535;-58
2022/01/17 00:47:17;;;;;;;14.93;12.50;;;;;;;;;;5128244;27;24486;-58
2022/01/17 00:49:42;;;;;;;14.57;12.57;;;;;;;;;;5129133;27;24962;-58
2022/01/17 00:52:08;;;;;;;14.10;12.60;;;;;;;;;;5128083;27;24428;-58
2022/01/17 00:54:33;;;;;;;13.77;12.27;;;;;;;;;;5129069;27;24498;-58
2022/01/17 00:56:58;;;;;;;15.10;12.20;;;;;;;;;;5128442;27;24451;-58
2022/01/17 00:59:23;;;;;;;14.07;12.57;;;;;;;;;;5123282;27;24574;-58
2022/01/17 01:01:49;;;;;;;14.50;12.80;;;;;;;;;;5127869;27;24494;-59
2022/01/17 01:04:14;;;;;;;14.43;12.97;;;;;;;;;;5128190;27;24934;-58
2022/01/17 01:06:39;;;;;;;15.13;13.55;;;;;;;;;;5127393;27;24405;-59
2022/01/17 01:09:04;;;;;;;14.40;12.90;;;;;;;;;;5128689;27;24424;-58
2022/01/17 01:11:30;;;;;;;15.33;13.73;;;;;;;;;;5127645;27;24524;-57
2022/01/17 01:13:55;;;;;;;14.53;13.03;;;;;;;;;;5128209;27;24416;-58
2022/01/17 01:29:32;;;;;;;15.50;13.85;;;;;;;;;;5127684;27;24404;-58
2022/01/17 01:32:02;;;;;;;13.80;12.40;;;;;;;;;;5127537;27;24417;-58
2022/01/17 01:34:35;;;;;;;14.32;12.90;;;;;;;;;;5128199;27;24435;-58
2022/01/17 01:37:03;;;;;;;14.00;12.60;;;;;;;;;;5126907;27;24981;-58
2022/01/17 01:39:28;;;;;;;15.43;13.10;;;;;;;;;;5120023;27;24425;-57
2022/01/17 01:41:53;;;;;;;13.70;12.30;;;;;;;;;;5127716;27;24408;-57
2022/01/17 01:44:20;;;;;;;14.80;12.80;;;;;;;;;;5128306;27;24465;-57
2022/01/17 01:46:46;;;;;;;14.52;12.88;;;;;;;;;;5128178;27;24470;-57
2022/01/17 01:49:11;;;;;;;15.88;13.85;;;;;;;;;;5125906;27;24413;-58
2022/01/17 01:51:36;;;;;;;15.07;13.33;;;;;;;;;;5127597;27;26491;-58
2022/01/17 01:54:02;;;;;;;14.37;12.87;;;;;;;;;;5127521;27;25000;-56
2022/01/17 01:56:27;;;;;;;14.30;12.90;;;;;;;;;;5127587;27;24440;-57
2022/01/17 01:58:52;;;;;;;14.07;12.23;;;;;;;;;;5127324;27;24774;-57
2022/01/17 02:01:18;;;;;;;14.38;12.80;;;;;;;;;;5122455;27;24826;-57
2022/01/17 02:03:43;;;;;;;14.10;12.70;;;;;;;;;;5124784;27;24420;-57
2022/01/17 02:06:08;;;;;;;14.17;12.67;;;;;;;;;;5118860;27;25278;-58
2022/01/17 02:08:34;;;;;;;16.10;14.50;;;;;;;;;;5127400;27;24930;-57
2022/01/17 02:10:59;;;;;;;15.10;13.70;;;;;;;;;;5121536;27;24439;-57
2022/01/17 02:13:25;;;;;;;13.83;12.43;;;;;;;;;;5126607;27;24798;-57
2022/01/17 02:15:51;;;;;;;14.50;13.10;;;;;;;;;;5124950;27;24984;-57
2022/01/17 02:18:22;;;;;;;14.60;13.10;;;;;;;;;;5126221;27;24421;-58
2022/01/17 02:21:09;;;;;;;14.77;13.27;;;;;;;;;;5126309;27;24744;-57
2022/01/17 02:23:33;;;;;;;16.40;13.32;;;;;;;;;;5118844;27;24493;-57
2022/01/17 02:25:58;;;;;;;14.10;12.60;;;;;;;;;;5126914;27;24867;-58
2022/01/17 02:28:23;;;;;;;13.52;11.80;;;;;;;;;;5127135;27;25211;-57
2022/01/17 02:30:48;;;;;;;14.63;13.02;;;;;;;;;;5127521;27;25240;-58
2022/01/17 02:33:13;;;;;;;14.80;13.18;;;;;;;;;;5115006;27;24452;-57
2022/01/17 02:35:38;;;;;;;13.75;12.35;;;;;;;;;;5118924;27;24421;-56
2022/01/17 02:38:03;;;;;;;13.90;12.20;;;;;;;;;;5124543;27;25002;-57
2022/01/17 02:40:29;;;;;;;12.90;11.50;;;;;;;;;;5126256;27;24489;-57
2022/01/17 02:43:00;;;;;;;14.47;12.60;;;;;;;;;;5126443;27;24444;-56
2022/01/17 02:45:34;;;;;;;13.53;12.13;;;;;;;;;;5120889;27;24405;-56
2022/01/17 02:48:00;;;;;;;14.40;13.00;;;;;;;;;;5126134;27;24416;-57
2022/01/17 02:50:26;;;;;;;13.60;12.30;;;;;;;;;;5126479;27;24429;-57
2022/01/17 02:52:51;;;;;;;12.67;11.47;;;;;;;;;;5126409;27;24559;-57
2022/01/17 02:55:16;;;;;;;12.30;11.10;;;;;;;;;;5124035;27;24771;-57
2022/01/17 02:57:41;;;;;;;12.38;11.13;;;;;;;;;;5126200;27;24554;-57
2022/01/17 03:00:10;;;;;;;12.40;11.10;;;;;;;;;;5125839;28;24425;-56
2022/01/17 03:02:35;;;;;;;13.10;11.82;;;;;;;;;;5121477;28;24783;-56
2022/01/17 03:05:00;;;;;;;13.18;11.88;;;;;;;;;;5125947;28;24424;-57
2022/01/17 03:07:25;;;;;;;12.60;11.30;;;;;;;;;;5125011;28;24417;-57
2022/01/17 03:10:02;;;;;;;12.90;11.60;;;;;;;;;;5126498;28;24440;-57
2022/01/17 03:12:28;;;;;;;14.20;12.75;;;;;;;;;;5126112;28;24428;-56
2022/01/17 03:14:53;;;;;;;11.80;10.60;;;;;;;;;;5126636;28;24425;-57
2022/01/17 03:17:18;;;;;;;11.07;9.97;;;;;;;;;;5113587;28;24982;-56
2022/01/17 03:19:43;;;;;;;11.75;10.10;;;;;;;;;;5126465;28;24482;-57
2022/01/17 03:22:08;;;;;;;11.32;10.23;;;;;;;;;;5125136;28;24424;-56
2022/01/17 03:24:33;;;;;;;11.63;10.55;;;;;;;;;;5126357;28;24744;-58
2022/01/17 03:26:58;;;;;;;11.48;10.38;;;;;;;;;;5125874;28;24440;-58
2022/01/17 03:29:24;;;;;;;11.10;10.00;;;;;;;;;;5126984;27;24432;-58
2022/01/17 03:31:49;;;;;;;12.00;10.53;;;;;;;;;;5129352;27;24777;-57
2022/01/17 03:34:14;;;;;;;10.30;9.30;;;;;;;;;;5126738;27;24439;-57
2022/01/17 03:36:40;;;;;;;11.27;10.23;;;;;;;;;;5128941;27;24801;-57
2022/01/17 03:39:05;;;;;;;10.50;9.40;;;;;;;;;;5125583;27;24429;-58
2022/01/17 03:41:31;;;;;;;10.10;9.10;;;;;;;;;;5128165;27;24424;-59
2022/01/17 03:43:56;;;;;;;11.20;10.20;;;;;;;;;;5129321;27;24427;-57
2022/01/17 03:46:21;;;;;;;11.10;10.10;;;;;;;;;;5127837;27;24498;-57
2022/01/17 03:48:46;;;;;;;11.40;9.70;;;;;;;;;;5128619;27;24412;-58
2022/01/17 03:51:11;;;;;;;10.13;9.20;;;;;;;;;;5128701;27;24420;-57
2022/01/17 03:53:37;;;;;;;9.40;8.50;;;;;;;;;;5128999;27;24966;-57
2022/01/17 03:56:02;;;;;;;10.20;9.20;;;;;;;;;;5130136;27;24504;-57
2022/01/17 03:58:27;;;;;;;9.70;8.80;;;;;;;;;;5128009;27;24504;-57
2022/01/17 04:00:55;;;;;;;10.07;8.90;;;;;;;;;;5130140;27;24413;-57
2022/01/17 04:03:20;;;;;;;9.00;8.10;;;;;;;;;;5128734;27;24454;-56
2022/01/17 04:05:45;;;;;;;9.70;8.80;;;;;;;;;;5129753;27;24825;-56
2022/01/17 04:08:10;;;;;;;9.30;8.40;;;;;;;;;;5117708;27;24425;-56
2022/01/17 04:10:36;;;;;;;9.57;8.57;;;;;;;;;;5126711;27;24416;-58
2022/01/17 04:13:03;;;;;;;8.95;8.15;;;;;;;;;;5128609;27;24412;-57
2022/01/17 04:15:29;;;;;;;9.50;8.60;;;;;;;;;;5128709;27;24416;-57
2022/01/17 04:17:55;;;;;;;9.23;8.32;;;;;;;;;;5129542;27;24783;-57
2022/01/17 04:20:26;;;;;;;8.50;7.70;;;;;;;;;;5126553;27;24936;-57
2022/01/17 04:22:54;;;;;;;9.68;8.68;;;;;;;;;;5129545;27;24413;-57
2022/01/17 04:25:20;;;;;;;8.57;7.68;;;;;;;;;;5128772;27;24428;-58
2022/01/17 04:27:45;;;;;;;8.30;7.50;;;;;;;;;;5129090;27;24429;-59
2022/01/17 04:30:10;;;;;;;9.57;8.25;;;;;;;;;;5129284;27;24819;-58
2022/01/17 04:32:35;;;;;;;9.20;8.30;;;;;;;;;;5120857;27;24958;-58
2022/01/17 04:35:01;;;;;;;9.00;8.10;;;;;;;;;;5122820;27;24413;-58
2022/01/17 04:37:26;;;;;;;9.23;8.27;;;;;;;;;;5125717;27;24444;-57
2022/01/17 04:39:51;;;;;;;8.70;7.90;;;;;;;;;;5127618;27;24463;-57
2022/01/17 04:42:25;;;;;;;8.63;7.82;;;;;;;;;;5125389;27;21425;-57
2022/01/17 04:45:10;;;;;;;8.75;7.93;;;;;;;;;;5127818;27;25069;-57
2022/01/17 04:47:36;;;;;;;9.25;8.27;;;;;;;;;;5122613;27;24421;-58
2022/01/17 04:50:06;;;;;;;9.57;8.67;;;;;;;;;;5125411;27;25184;-58
2022/01/17 04:52:31;;;;;;;8.20;7.40;;;;;;;;;;5126860;27;24458;-57
2022/01/17 04:55:00;;;;;;;8.17;7.37;;;;;;;;;;5128564;27;25409;-57
2022/01/17 04:57:26;;;;;;;8.90;8.10;;;;;;;;;;5127902;27;24441;-58
2022/01/17 04:59:51;;;;;;;9.00;8.13;;;;;;;;;;5129451;27;24513;-58
2022/01/17 05:02:16;;;;;;;8.98;8.18;;;;;;;;;;5127964;27;24981;-57
2022/01/17 05:04:44;;;;;;;8.80;7.93;;;;;;;;;;5128524;27;24472;-57
2022/01/17 05:07:10;;;;;;;8.45;7.65;;;;;;;;;;5128168;27;24508;-57
2022/01/17 05:09:35;;;;;;;8.70;7.82;;;;;;;;;;5127835;27;24516;-57
2022/01/17 05:12:01;;;;;;;8.32;7.53;;;;;;;;;;5128443;27;24451;-57
2022/01/17 05:14:27;;;;;;;8.40;7.70;;;;;;;;;;5128406;27;24775;-57
2022/01/17 05:17:00;;;;;;;8.95;7.78;;;;;;;;;;5126795;27;24413;-57
2022/01/17 05:22:09;;;;;;;8.50;7.60;;;;;;;;;;5125934;27;24432;-57
2022/01/17 05:24:34;;;;;;;8.00;7.00;;;;;;;;;;5127908;27;24500;-58
2022/01/17 05:26:59;;;;;;;7.60;6.90;;;;;;;;;;5125775;27;24517;-57
2022/01/17 05:29:24;;;;;;;7.50;6.80;;;;;;;;;;5124581;27;24424;-58
2022/01/17 05:31:50;;;;;;;6.87;6.17;;;;;;;;;;5122491;27;24743;-57
2022/01/17 05:34:15;;;;;;;7.00;6.40;;;;;;;;;;5124773;27;24451;-58
2022/01/17 05:36:40;;;;;;;7.18;6.47;;;;;;;;;;5124844;27;24549;-58
2022/01/17 05:39:05;;;;;;;7.00;6.30;;;;;;;;;;5123135;27;25112;-58
2022/01/17 05:41:30;;;;;;;6.90;6.30;;;;;;;;;;5124955;27;24445;-57
2022/01/17 05:43:56;;;;;;;7.13;6.17;;;;;;;;;;5118276;27;24413;-57
2022/01/17 05:46:21;;;;;;;7.22;6.10;;;;;;;;;;5120771;27;24420;-57
2022/01/17 05:48:46;;;;;;;6.93;6.07;;;;;;;;;;5124788;27;24432;-58
2022/01/17 05:51:11;;;;;;;6.80;6.10;;;;;;;;;;5124662;27;24413;-57
2022/01/17 05:53:36;;;;;;;7.13;6.00;;;;;;;;;;5123086;27;24424;-57
2022/01/17 05:56:02;;;;;;;6.77;6.10;;;;;;;;;;5109169;27;24420;-57
2022/01/17 05:58:27;;;;;;;6.65;5.97;;;;;;;;;;5125031;27;24648;-58
2022/01/17 06:00:53;;;;;;;6.70;6.03;;;;;;;;;;5122776;27;24425;-59
2022/01/17 06:03:18;;;;;;;7.22;6.22;;;;;;;;;;5124117;27;24996;-58
2022/01/17 06:05:43;;;;;;;6.95;6.25;;;;;;;;;;5124407;27;24449;-58
2022/01/17 06:08:09;;;;;;;6.38;5.70;;;;;;;;;;5124972;27;24458;-58
2022/01/17 06:10:34;;;;;;;6.00;5.40;;;;;;;;;;5110699;27;24420;-59
2022/01/17 06:13:01;;;;;;;6.30;5.70;;;;;;;;;;5119737;27;24409;-58
2022/01/17 06:15:26;;;;;;;6.90;6.20;;;;;;;;;;5123509;27;24413;-58
2022/01/17 06:17:51;;;;;;;7.27;5.90;;;;;;;;;;5120912;27;24420;-57
2022/01/17 06:20:16;;;;;;;8.77;6.22;;;;;;;;;;5127670;27;24412;-57
2022/01/17 06:22:41;;;;;;;7.18;6.10;;;;;;;;;;5125303;27;24454;-58
2022/01/17 06:25:07;;;;;;;7.73;6.93;;;;;;;;;;5118954;27;24408;-57
2022/01/17 06:27:32;;;;;;;7.13;6.40;;;;;;;;;;5112141;27;24578;-58
2022/01/17 06:29:57;;;;;;;8.13;6.90;;;;;;;;;;5112478;27;24425;-58
2022/01/17 06:32:23;;;;;;;8.90;6.70;;;;;;;;;;5119187;27;24425;-58
2022/01/17 06:34:48;;;;;;;7.45;6.47;;;;;;;;;;5127011;27;24988;-58
2022/01/17 06:37:14;;;;;;;8.93;7.63;;;;;;;;;;5126097;27;24460;-58
2022/01/17 06:39:39;;;;;;;8.30;6.97;;;;;;;;;;5127367;27;24464;-58
2022/01/17 06:42:05;;;;;;;8.25;6.95;;;;;;;;;;5127416;27;24401;-59
2022/01/17 06:44:30;;;;;;;8.17;7.10;;;;;;;;;;5107854;27;24478;-58
2022/01/17 06:46:55;;;;;;;10.25;7.40;;;;;;;;;;5127304;27;24884;-58
2022/01/17 06:49:20;;;;;;;7.80;7.00;;;;;;;;;;5120988;27;24951;-58
2022/01/17 06:51:45;;;;;;;9.50;6.90;;;;;;;;;;5119187;27;24509;-58
2022/01/17 06:54:10;;;;;;;8.40;6.80;;;;;;;;;;5117486;28;24981;-58
2022/01/17 06:56:36;;;;;;;7.37;6.50;;;;;;;;;;5118926;27;24428;-58
2022/01/17 06:59:01;;;;;;;7.63;6.80;;;;;;;;;;5118301;27;24786;-58
2022/01/17 07:01:26;;;;;;;10.30;7.37;;;;;;;;;;5126263;28;24845;-58
2022/01/17 07:03:51;;;;;;;8.77;7.00;;;;;;;;;;5125153;27;24485;-58
2022/01/17 07:06:17;;;;;;;9.80;7.00;;;;;;;;;;5126877;28;24497;-58
2022/01/17 07:08:44;;;;;;;7.10;6.40;;;;;;;;;;5129932;27;24484;-58
2022/01/17 07:11:10;;;;;;;8.15;6.70;;;;;;;;;;5127544;28;24476;-58
2022/01/17 07:13:35;;;;;;;8.83;6.53;;;;;;;;;;5124849;28;24496;-58
2022/01/17 07:16:00;;;;;;;8.13;6.40;;;;;;;;;;5125447;28;25174;-58
2022/01/17 07:18:25;;;;;;;7.03;6.33;;;;;;;;;;5123989;28;24413;-58
2022/01/17 07:20:50;;;;;;;7.63;5.80;;;;;;;;;;5123666;28;25021;-58
2022/01/17 07:23:16;;;;;;;6.17;5.57;;;;;;;;;;5126721;28;24828;-58
2022/01/17 07:25:41;;;;;;;6.40;5.40;;;;;;;;;;5125952;28;24477;-57
2022/01/17 07:28:07;;;;;;;7.17;5.10;;;;;;;;;;5125705;28;24413;-57
2022/01/17 07:30:32;;;;;;;5.63;5.03;;;;;;;;;;5126695;28;24957;-57
2022/01/17 07:32:57;;;;;;;7.07;4.90;;;;;;;;;;5125428;28;24460;-58
2022/01/17 07:35:23;;;;;;;7.05;4.57;;;;;;;;;;5125414;27;24419;-57
2022/01/17 07:37:48;;;;;;;7.70;5.40;;;;;;;;;;5119576;28;24437;-57
2022/01/17 07:40:13;;;;;;;6.38;4.97;;;;;;;;;;5121109;28;24485;-60
2022/01/17 07:42:38;;;;;;;8.00;5.83;;;;;;;;;;5115709;27;24518;-58
2022/01/17 07:45:11;;;;;;;6.00;5.43;;;;;;;;;;5122374;27;24927;-58
2022/01/17 07:47:43;;;;;;;6.20;4.78;;;;;;;;;;5122566;27;24751;-58
2022/01/17 07:50:11;;;;;;;7.13;5.43;;;;;;;;;;5121368;28;24428;-58
2022/01/17 07:52:36;;;;;;;6.68;5.20;;;;;;;;;;5126106;28;24412;-57
2022/01/17 07:55:02;;;;;;;8.65;5.10;;;;;;;;;;5126572;28;24443;-58
2022/01/17 07:57:27;;;;;;;7.37;5.00;;;;;;;;;;5126334;28;24453;-58
2022/01/17 07:59:52;;;;;;;8.02;4.65;;;;;;;;;;5126796;28;24824;-58
2022/01/17 08:02:17;;;;;;;6.77;5.17;;;;;;;;;;5108051;28;24465;-58
2022/01/17 08:04:43;;;;;;;7.10;5.10;;;;;;;;;;5125506;28;24397;-58
2022/01/17 08:07:08;;;;;;;6.33;4.47;;;;;;;;;;5126538;28;24466;-58
2022/01/17 08:09:34;;;;;;;5.80;5.10;;;;;;;;;;5126758;28;25170;-57
2022/01/17 08:12:00;;;;;;;6.50;4.73;;;;;;;;;;5126697;28;24508;-57
2022/01/17 08:14:25;;;;;;;5.63;4.43;;;;;;;;;;5126414;28;24588;-58
2022/01/17 08:16:51;;;;;;;7.07;4.80;;;;;;;;;;5126521;27;24725;-58
2022/01/17 08:19:16;;;;;;;6.70;5.00;;;;;;;;;;5129537;27;24425;-58
2022/01/17 08:21:41;;;;;;;6.07;4.60;;;;;;;;;;5129989;27;24405;-57
2022/01/17 08:24:06;;;;;;;4.90;4.30;;;;;;;;;;5130043;27;24461;-58
2022/01/17 08:26:32;;;;;;;6.43;4.75;;;;;;;;;;5128823;27;24859;-58
2022/01/17 08:28:57;;;;;;;4.40;4.00;;;;;;;;;;5130371;27;24787;-57
2022/01/17 08:31:22;;;;;;;5.20;4.50;;;;;;;;;;5129303;27;24537;-58
2022/01/17 08:33:47;;;;;;;4.40;4.00;;;;;;;;;;5129205;27;24484;-58
2022/01/17 08:36:13;;;;;;;7.25;4.50;;;;;;;;;;5129743;27;24465;-58
2022/01/17 08:38:38;;;;;;;4.68;4.13;;;;;;;;;;5129458;27;25087;-58
2022/01/17 08:41:04;;;;;;;6.73;4.60;;;;;;;;;;5128893;27;24413;-58
2022/01/17 08:43:29;;;;;;;6.60;5.10;;;;;;;;;;5129510;27;24473;-58
2022/01/17 08:45:54;;;;;;;4.73;3.90;;;;;;;;;;5129109;27;24469;-58
2022/01/17 08:48:20;;;;;;;4.90;4.20;;;;;;;;;;5128917;27;25014;-57
2022/01/17 08:50:47;;;;;;;8.70;4.73;;;;;;;;;;5129346;27;24396;-57
2022/01/17 08:53:13;;;;;;;6.30;3.83;;;;;;;;;;5129050;27;24759;-57
2022/01/17 08:55:39;;;;;;;5.20;4.00;;;;;;;;;;5129069;27;24516;-57
2022/01/17 08:58:05;;;;;;;8.17;4.20;;;;;;;;;;5129178;27;24517;-57
2022/01/17 09:00:33;;;;;;;5.53;3.50;;;;;;;;;;5129116;27;24420;-57
2022/01/17 09:03:01;;;;;;;5.90;3.75;;;;;;;;;;5128941;27;24978;-57
2022/01/17 09:05:26;;;;;;;4.10;3.40;;;;;;;;;;5128951;27;24437;-57
2022/01/17 09:07:51;;;;;;;5.78;3.30;;;;;;;;;;5129034;27;24409;-57
2022/01/17 09:10:16;;;;;;;4.60;3.40;;;;;;;;;;5128421;27;24417;-57
2022/01/17 09:12:42;;;;;;;7.30;3.80;;;;;;;;;;5128950;27;24408;-57
2022/01/17 09:15:07;;;;;;;4.77;3.50;;;;;;;;;;5129229;27;24689;-57
2022/01/17 09:17:32;;;;;;;5.70;3.60;;;;;;;;;;5128603;27;24567;-59
2022/01/17 09:19:58;;;;;;;4.15;3.35;;;;;;;;;;5128538;27;24844;-57
2022/01/17 09:22:23;;;;;;;5.77;3.50;;;;;;;;;;5128606;27;24385;-57
2022/01/17 09:24:48;;;;;;;5.15;3.50;;;;;;;;;;5129174;27;24401;-57
2022/01/17 09:27:15;;;;;;;5.38;3.50;;;;;;;;;;5128273;27;24408;-57
2022/01/17 09:29:40;;;;;;;5.30;3.40;;;;;;;;;;5129006;27;24500;-57
2022/01/17 09:32:05;;;;;;;6.80;3.55;;;;;;;;;;5128199;27;24528;-57
2022/01/17 09:34:31;;;;;;;5.73;3.50;;;;;;;;;;5128733;27;24454;-57
2022/01/17 09:36:56;;;;;;;4.35;3.50;;;;;;;;;;5128470;27;24445;-57
2022/01/17 09:39:21;;;;;;;4.77;3.37;;;;;;;;;;5128164;27;24429;-57
2022/01/17 09:41:46;;;;;;;3.90;3.10;;;;;;;;;;5128996;27;24390;-59
2022/01/17 09:44:12;;;;;;;5.23;3.37;;;;;;;;;;5127376;27;25013;-58
2022/01/17 09:46:42;;;;;;;5.40;3.30;;;;;;;;;;5127900;27;24453;-58
2022/01/17 09:49:35;;;;;;;4.53;3.15;;;;;;;;;;5128526;27;24396;-58
2022/01/17 09:52:08;;;;;;;3.30;3.00;;;;;;;;;;5128153;27;24743;-60
2022/01/17 09:54:36;;;;;;;4.30;3.20;;;;;;;;;;5128276;27;24442;-58
2022/01/17 09:57:06;;;;;;;4.10;2.77;;;;;;;;;;5127499;27;24465;-58
2022/01/17 09:59:31;;;;;;;5.70;2.90;;;;;;;;;;5127918;27;24508;-58
2022/01/17 10:01:56;;;;;;;3.60;3.03;;;;;;;;;;5127816;27;24488;-58
2022/01/17 10:04:21;;;;;;;7.10;3.10;;;;;;;;;;5127817;27;24393;-58
2022/01/17 10:06:53;;;;;;;3.95;2.60;;;;;;;;;;5127267;27;24434;-59
2022/01/17 10:09:24;;;;;;;3.35;2.70;;;;;;;;;;5127957;27;24405;-58
2022/01/17 10:12:01;;;;;;;4.70;2.90;;;;;;;;;;5127732;27;24388;-58
2022/01/17 10:14:27;;;;;;;6.30;3.08;;;;;;;;;;5127902;27;24393;-58
2022/01/17 10:16:53;;;;;;;4.18;2.97;;;;;;;;;;5127087;27;24521;-58
2022/01/17 10:19:20;;;;;;;3.58;2.22;;;;;;;;;;5127752;27;25471;-58
2022/01/17 10:21:50;;;;;;;6.72;2.80;;;;;;;;;;5127674;27;24394;-59
2022/01/17 10:29:33;;;;;;;5.05;2.80;;;;;;;;;;5127744;27;24903;-58
2022/01/17 10:34:56;;;;;;;5.85;2.72;;;;;;;;;;5127647;27;24417;-58
2022/01/17 10:37:23;;;;;;;4.63;2.90;;;;;;;;;;5124514;27;24494;-58
2022/01/17 10:39:57;;;;;;;4.75;3.03;;;;;;;;;;5126590;27;24458;-58
2022/01/17 10:42:23;;;;;;;5.40;2.85;;;;;;;;;;5126965;27;25049;-58
2022/01/17 10:44:49;;;;;;;5.78;3.20;;;;;;;;;;5127427;27;24400;-58
2022/01/17 10:47:17;;;;;;;4.00;3.10;;;;;;;;;;5126746;27;24508;-58
2022/01/17 10:49:49;;;;;;;5.20;3.10;;;;;;;;;;5127145;27;24991;-58
2022/01/17 10:52:28;;;;;;;6.07;3.38;;;;;;;;;;5127077;27;24385;-58
2022/01/17 10:54:55;;;;;;;5.70;2.75;;;;;;;;;;5126965;27;24825;-58
2022/01/17 10:57:22;;;;;;;4.60;2.95;;;;;;;;;;5126719;27;24440;-58
2022/01/17 10:59:51;;;;;;;4.93;2.70;;;;;;;;;;5126668;27;24433;-58
2022/01/17 11:02:16;;;;;;;3.97;3.00;;;;;;;;;;5126649;27;24393;-58
2022/01/17 11:04:41;;;;;;;7.20;3.60;;;;;;;;;;5126483;28;24415;-58
2022/01/17 11:07:08;;;;;;;6.73;3.17;;;;;;;;;;5126433;28;24401;-58
2022/01/17 11:09:46;;;;;;;4.00;2.78;;;;;;;;;;5126966;28;24485;-57
2022/01/17 11:12:13;;;;;;;6.13;3.15;;;;;;;;;;5126612;28;24966;-58
2022/01/17 11:14:39;;;;;;;4.32;2.90;;;;;;;;;;5126687;28;24431;-59
2022/01/17 11:17:24;;;;;;;4.65;2.60;;;;;;;;;;5126855;28;25021;-57
2022/01/17 11:20:08;;;;;;;3.65;2.80;;;;;;;;;;5108107;28;25189;-58
2022/01/17 11:22:35;;;;;;;4.97;2.88;;;;;;;;;;5126527;28;24408;-57
2022/01/17 11:25:01;;;;;;;5.45;3.10;;;;;;;;;;5125809;28;24950;-58
2022/01/17 11:27:26;;;;;;;4.23;2.80;;;;;;;;;;5126351;28;24399;-58
2022/01/17 11:29:52;;;;;;;5.27;3.10;;;;;;;;;;5126983;28;24404;-58
2022/01/17 11:32:18;;;;;;;3.40;2.90;;;;;;;;;;5126723;28;24400;-59
2022/01/17 11:34:43;;;;;;;4.05;3.00;;;;;;;;;;5126782;28;25159;-58
2022/01/17 11:37:09;;;;;;;3.30;2.60;;;;;;;;;;5125701;28;24441;-59
2022/01/17 11:39:42;;;;;;;4.25;2.90;;;;;;;;;;5126582;27;24470;-58
2022/01/17 11:42:26;;;;;;;5.90;3.10;;;;;;;;;;5126848;28;25127;-58
2022/01/17 11:44:52;;;;;;;4.83;3.10;;;;;;;;;;5126414;28;24416;-58
2022/01/17 11:47:17;;;;;;;4.43;3.00;;;;;;;;;;5126098;28;24417;-58
2022/01/17 11:49:42;;;;;;;4.30;3.40;;;;;;;;;;5126356;27;24394;-58
2022/01/17 11:52:27;;;;;;;4.28;3.50;;;;;;;;;;5129861;27;24406;-58
2022/01/17 11:54:52;;;;;;;5.43;2.95;;;;;;;;;;5130366;27;24404;-58
2022/01/17 11:57:21;;;;;;;4.57;3.10;;;;;;;;;;5130304;27;24405;-58
2022/01/17 11:59:51;;;;;;;4.35;3.00;;;;;;;;;;5130082;27;24981;-58
2022/01/17 12:02:18;;;;;;;3.63;2.58;;;;;;;;;;5129515;27;26535;-58
2022/01/17 12:05:06;;;;;;;3.45;2.90;;;;;;;;;;5129837;27;24408;-58
2022/01/17 12:07:49;;;;;;;3.88;2.95;;;;;;;;;;5079569;27;24504;-58
2022/01/17 12:10:15;;;;;;;3.47;3.00;;;;;;;;;;5130064;27;24393;-58
2022/01/17 12:12:41;;;;;;;5.13;3.00;;;;;;;;;;5129068;27;25324;-58
2022/01/17 12:15:16;;;;;;;3.10;2.80;;;;;;;;;;5130294;27;24401;-58
2022/01/17 12:17:41;;;;;;;2.95;2.50;;;;;;;;;;5129668;27;24399;-58
2022/01/17 12:20:09;;;;;;;3.10;2.90;;;;;;;;;;5129952;27;24405;-59
2022/01/17 12:22:43;;;;;;;3.83;3.30;;;;;;;;;;5129875;27;24429;-58
2022/01/17 12:25:29;;;;;;;3.72;3.33;;;;;;;;;;5129410;27;24570;-58
2022/01/17 12:28:03;;;;;;;4.18;3.78;;;;;;;;;;5129768;27;24524;-58
2022/01/17 12:30:41;;;;;;;5.22;3.75;;;;;;;;;;5129342;27;25220;-58
2022/01/17 12:33:10;;;;;;;4.07;3.70;;;;;;;;;;5128825;27;24409;-59
2022/01/17 12:35:43;;;;;;;5.25;3.40;;;;;;;;;;5129332;27;24401;-60
2022/01/17 12:38:12;;;;;;;3.15;2.90;;;;;;;;;;5128912;27;25006;-58
2022/01/17 12:40:40;;;;;;;3.70;3.40;;;;;;;;;;5129689;27;24412;-59
2022/01/17 12:43:12;;;;;;;3.55;3.00;;;;;;;;;;5129642;27;24425;-58
2022/01/17 12:45:42;;;;;;;3.22;2.80;;;;;;;;;;5129571;27;24763;-60
2022/01/17 12:48:08;;;;;;;2.73;2.50;;;;;;;;;;5129255;27;24496;-59
2022/01/17 12:50:34;;;;;;;3.53;3.00;;;;;;;;;;5129004;27;24416;-58
2022/01/17 12:53:00;;;;;;;3.00;2.70;;;;;;;;;;5129040;27;24474;-58
2022/01/17 12:55:32;;;;;;;4.88;2.58;;;;;;;;;;5129253;27;24392;-59
2022/01/17 12:57:57;;;;;;;2.83;2.30;;;;;;;;;;5126849;27;24421;-58
2022/01/17 13:00:23;;;;;;;2.50;2.15;;;;;;;;;;5129100;27;24768;-57
2022/01/17 13:02:52;;;;;;;2.95;2.42;;;;;;;;;;5127491;27;24436;-58
2022/01/17 13:05:21;;;;;;;2.40;2.10;;;;;;;;;;5129148;27;24797;-57
2022/01/17 13:07:47;;;;;;;3.40;1.70;;;;;;;;;;5128556;27;24404;-57
2022/01/17 13:10:12;;;;;;;4.40;1.70;;;;;;;;;;5129178;27;24966;-53
2022/01/17 13:12:41;;;;;;;7.88;2.10;;;;;;;;;;5128419;27;24405;-69
2022/01/17 13:15:07;;;;;;;4.90;1.90;;;;;;;;;;5129114;27;24444;-75
2022/01/17 13:17:33;;;;;;;6.40;1.90;;;;;;;;;;5110639;27;25030;-72
2022/01/17 13:19:59;;;;;;;3.93;1.70;;;;;;;;;;5128731;27;24485;-70
2022/01/17 13:22:25;;;;;;;4.85;2.10;;;;;;;;;;5128441;27;24466;-68
2022/01/17 13:25:02;;;;;;;4.40;1.95;;;;;;;;;;5128965;27;24793;-66
2022/01/17 13:27:31;;;;;;;4.80;2.30;;;;;;;;;;5127247;27;24899;-64
2022/01/17 13:29:56;;;;;;;4.15;2.00;;;;;;;;;;5128584;27;24424;-64
2022/01/17 13:32:22;;;;;;;6.03;2.23;;;;;;;;;;5128374;27;24413;-64
2022/01/17 13:34:47;;;;;;;6.03;2.53;;;;;;;;;;5110360;27;25026;-64
2022/01/17 13:37:12;;;;;;;3.63;2.10;;;;;;;;;;5127956;27;24417;-64
2022/01/17 13:39:37;;;;;;;5.33;2.30;;;;;;;;;;5128347;27;24482;-64
2022/01/17 13:42:04;;;;;;;5.90;2.03;;;;;;;;;;5127834;27;25087;-64
2022/01/17 13:44:31;;;;;;;4.40;2.30;;;;;;;;;;5127886;27;24413;-65
2022/01/17 13:46:57;;;;;;;6.50;2.20;;;;;;;;;;5128549;27;24953;-63
2022/01/17 13:49:23;;;;;;;4.25;2.20;;;;;;;;;;5128392;27;24412;-61
2022/01/17 13:51:48;;;;;;;4.80;2.43;;;;;;;;;;5128289;27;24942;-64
2022/01/17 13:54:27;;;;;;;4.90;2.20;;;;;;;;;;5128558;27;24405;-63
2022/01/17 13:56:52;;;;;;;5.88;2.13;;;;;;;;;;5127826;27;24401;-62
2022/01/17 13:59:17;;;;;;;6.83;2.60;;;;;;;;;;5128529;27;24428;-59
2022/01/17 14:01:42;;;;;;;7.00;2.90;;;;;;;;;;5128006;27;24564;-59
2022/01/17 14:04:18;;;;;;;6.30;3.00;;;;;;;;;;5127740;27;24416;-59
2022/01/17 14:06:44;;;;;;;6.80;2.80;;;;;;;;;;5127951;27;24404;-58
2022/01/17 14:09:09;;;;;;;6.13;2.20;;;;;;;;;;5127851;27;24966;-58
2022/01/17 14:11:39;;;;;;;4.63;2.20;;;;;;;;;;5127390;27;25204;-59
2022/01/17 14:14:06;;;;;;;6.00;2.40;;;;;;;;;;5127811;27;24954;-57
2022/01/17 14:16:31;;;;;;;6.50;2.40;;;;;;;;;;5128152;27;24409;-57
2022/01/17 14:19:01;;;;;;;4.45;2.10;;;;;;;;;;5127610;27;24405;-57
2022/01/17 14:21:42;;;;;;;7.25;2.35;;;;;;;;;;5127474;27;24980;-56
2022/01/17 14:24:19;;;;;;;7.55;2.97;;;;;;;;;;5128163;27;24393;-56
2022/01/17 14:26:55;;;;;;;6.20;2.20;;;;;;;;;;5127588;27;24963;-57
2022/01/17 14:29:21;;;;;;;6.18;2.15;;;;;;;;;;5127897;27;24385;-60
2022/01/17 14:31:48;;;;;;;6.15;2.13;;;;;;;;;;5126989;27;24776;-57
2022/01/17 14:34:15;;;;;;;4.38;2.13;;;;;;;;;;5128097;27;24389;-58
2022/01/17 14:36:41;;;;;;;7.28;2.35;;;;;;;;;;5127164;27;24985;-58
2022/01/17 14:39:06;;;;;;;6.80;2.27;;;;;;;;;;5127323;27;24449;-57
2022/01/17 14:41:37;;;;;;;4.37;2.30;;;;;;;;;;5122846;27;24749;-57
2022/01/17 14:44:06;;;;;;;5.63;2.10;;;;;;;;;;5116014;27;24409;-57
2022/01/17 14:46:32;;;;;;;5.57;2.10;;;;;;;;;;5123898;27;24416;-58
2022/01/17 14:48:58;;;;;;;6.55;2.50;;;;;;;;;;5123978;27;24413;-58
2022/01/17 14:51:27;;;;;;;5.07;2.25;;;;;;;;;;5123988;27;24769;-57
2022/01/17 14:53:57;;;;;;;5.07;2.35;;;;;;;;;;5123934;27;24412;-58
2022/01/17 15:01:54;;;;;;;7.70;2.50;;;;;;;;;;5123362;27;24409;-58
2022/01/17 15:04:19;;;;;;;5.55;2.40;;;;;;;;;;5123715;28;24778;-58
2022/01/17 15:06:45;;;;;;;5.67;2.50;;;;;;;;;;5123276;27;24492;-58